createdAt,value
2018-09-04T00:01:49.205Z,29.80
2018-09-04T00:04:17.969Z,28.70
2018-09-04T00:06:46.685Z,29.37
2018-09-04T00:09:15.457Z,29.07
2018-09-04T00:11:44.111Z,28.83
2018-09-04T00:14:13.110Z,31.27
2018-09-04T00:16:42.110Z,33.73
2018-09-04T00:19:10.790Z,30.17
2018-09-04T00:21:39.450Z,31.27
2018-09-04T00:24:08.081Z,31.90
2018-09-04T00:26:37.286Z,36.33
2018-09-04T00:29:06.141Z,36.30
2018-09-04T00:31:35.959Z,33.20
2018-09-04T00:34:04.694Z,31.97
2018-09-04T00:36:36.057Z,36.87
2018-09-04T00:39:05.427Z,34.57
2018-09-04T00:41:34.032Z,33.77
2018-09-04T00:44:02.812Z,35.87
2018-09-04T00:46:32.458Z,37.30
2018-09-04T00:49:01.370Z,40.87
2018-09-04T00:51:30.474Z,40.10
2018-09-04T00:53:59.568Z,38.17
2018-09-04T00:56:28.488Z,35.63
2018-09-04T00:58:57.597Z,37.37
2018-09-04T01:01:27.067Z,35.50
2018-09-04T01:03:55.887Z,38.47
2018-09-04T01:06:25.444Z,37.03
2018-09-04T01:08:57.299Z,34.07
2018-09-04T01:11:26.319Z,33.50
2018-09-04T01:13:55.287Z,33.27
2018-09-04T01:16:24.219Z,32.97
2018-09-04T01:18:53.188Z,30.93
2018-09-04T01:21:22.700Z,31.40
2018-09-04T01:23:51.476Z,33.63
2018-09-04T01:26:20.142Z,31.93
2018-09-04T01:28:48.804Z,30.87
2018-09-04T01:31:17.468Z,34.67
2018-09-04T01:33:46.135Z,31.80
2018-09-04T01:36:14.845Z,32.77
2018-09-04T01:38:43.573Z,32.80
2018-09-04T01:41:12.403Z,31.70
2018-09-04T01:43:42.312Z,33.90
2018-09-04T01:46:12.257Z,32.93
2018-09-04T01:48:41.304Z,30.57
2018-09-04T01:51:10.839Z,29.93
2018-09-04T01:53:39.446Z,34.37
2018-09-04T01:56:08.214Z,30.10
2018-09-04T01:58:37.168Z,29.03
2018-09-04T02:01:06.810Z,28.87
2018-09-04T02:03:35.556Z,31.57
2018-09-04T02:06:04.141Z,32.13
2018-09-04T02:08:33.135Z,28.57
2018-09-04T02:11:02.227Z,26.87
2018-09-04T02:13:31.210Z,33.27
2018-09-04T02:16:00.719Z,28.47
2018-09-04T02:18:30.148Z,29.47
2018-09-04T02:20:59.852Z,32.07
2018-09-04T02:23:28.818Z,30.57
2018-09-04T02:25:57.494Z,30.63
2018-09-04T02:28:26.416Z,32.47
2018-09-04T02:30:57.176Z,32.60
2018-09-04T02:33:25.936Z,32.93
2018-09-04T02:35:55.688Z,32.83
2018-09-04T02:38:24.716Z,35.33
2018-09-04T02:40:53.494Z,31.57
2018-09-04T02:43:22.289Z,29.30
2018-09-04T02:45:51.728Z,29.63
2018-09-04T02:48:20.535Z,30.23
2018-09-04T02:50:49.413Z,30.40
2018-09-04T02:53:18.151Z,28.90
2018-09-04T02:55:47.126Z,26.73
2018-09-04T02:58:16.146Z,29.67
2018-09-04T03:00:45.485Z,27.80
2018-09-04T03:03:15.334Z,30.97
2018-09-04T03:05:44.139Z,31.50
2018-09-04T03:08:12.829Z,31.30
2018-09-04T03:10:41.443Z,27.70
2018-09-04T03:13:10.287Z,26.30
2018-09-04T03:15:39.867Z,28.90
2018-09-04T03:18:08.494Z,28.97
2018-09-04T03:20:38.909Z,31.27
2018-09-04T03:23:08.025Z,31.63
2018-09-04T03:25:36.801Z,30.00
2018-09-04T03:28:05.484Z,31.37
2018-09-04T03:30:34.405Z,29.17
2018-09-04T03:33:03.338Z,29.90
2018-09-04T03:35:32.273Z,26.53
2018-09-04T03:38:01.175Z,26.80
2018-09-04T03:40:30.088Z,27.83
2018-09-04T03:42:59.049Z,28.67
2018-09-04T03:45:27.963Z,28.03
2018-09-04T03:47:56.654Z,26.97
2018-09-04T03:50:25.446Z,25.97
2018-09-04T03:52:54.724Z,29.23
2018-09-04T03:55:23.355Z,31.77
2018-09-04T03:57:52.121Z,28.90
2018-09-04T04:00:20.738Z,28.57
2018-09-04T04:02:49.534Z,31.60
2018-09-04T04:05:19.057Z,25.53
2018-09-04T04:07:48.773Z,28.70
2018-09-04T04:10:19.103Z,29.57
2018-09-04T04:12:48.623Z,27.93
2018-09-04T04:15:17.299Z,27.50
2018-09-04T04:17:46.123Z,29.00
2018-09-04T04:20:16.210Z,29.00
2018-09-04T04:22:45.270Z,29.30
2018-09-04T04:25:13.884Z,30.23
2018-09-04T04:27:42.781Z,29.83
2018-09-04T04:30:11.551Z,28.93
2018-09-04T04:33:14.240Z,30.90
2018-09-04T04:35:42.967Z,27.60
2018-09-04T04:38:14.237Z,29.13
2018-09-04T04:40:43.066Z,30.40
2018-09-04T04:43:11.826Z,28.47
2018-09-04T04:45:41.386Z,28.73
2018-09-04T04:48:10.229Z,30.30
2018-09-04T04:50:39.602Z,32.47
2018-09-04T04:53:15.427Z,31.53
2018-09-04T04:55:46.892Z,30.83
2018-09-04T04:58:15.861Z,32.17
2018-09-04T05:00:46.848Z,28.43
2018-09-04T05:03:16.661Z,28.47
2018-09-04T05:05:48.392Z,31.10
2018-09-04T05:08:18.438Z,30.03
2018-09-04T05:10:48.554Z,29.33
2018-09-04T05:13:18.524Z,31.00
2018-09-04T05:15:50.862Z,29.53
2018-09-04T05:18:19.932Z,32.73
2018-09-04T05:20:50.723Z,27.37
2018-09-04T05:26:15.674Z,30.90
2018-09-04T05:28:44.635Z,29.73
2018-09-04T05:31:14.040Z,26.00
2018-09-04T05:33:43.949Z,27.70
2018-09-04T05:36:12.952Z,28.27
2018-09-04T05:38:43.548Z,26.13
2018-09-04T05:41:14.592Z,25.77
2018-09-04T05:43:52.548Z,28.20
2018-09-04T05:46:25.911Z,29.80
2018-09-04T05:48:55.417Z,26.47
2018-09-04T05:51:25.033Z,25.87
2018-09-04T05:53:54.156Z,28.07
2018-09-04T05:56:22.786Z,26.77
2018-09-04T05:58:51.408Z,27.90
2018-09-04T06:01:20.170Z,29.70
2018-09-04T06:03:56.060Z,29.40
2018-09-04T06:06:24.813Z,29.43
2018-09-04T06:08:53.608Z,31.93
2018-09-04T06:11:22.602Z,30.33
2018-09-04T06:13:51.320Z,30.33
2018-09-04T06:16:19.837Z,29.87
2018-09-04T06:18:48.403Z,30.80
2018-09-04T06:21:16.996Z,32.33
2018-09-04T06:23:52.786Z,28.60
2018-09-04T06:26:21.464Z,28.60
2018-09-04T06:28:50.064Z,34.27
2018-09-04T06:31:20.607Z,30.47
2018-09-04T06:33:55.011Z,46.90
2018-09-04T06:36:23.774Z,32.60
2018-09-04T06:38:52.362Z,31.87
2018-09-04T06:41:21.027Z,34.10
2018-09-04T06:43:49.812Z,33.53
2018-09-04T06:46:18.510Z,33.23
2018-09-04T06:48:47.182Z,32.93
2018-09-04T06:51:16.031Z,32.37
2018-09-04T06:53:44.563Z,32.80
2018-09-04T06:56:13.111Z,33.13
2018-09-04T06:58:41.629Z,31.50
2018-09-04T07:01:10.938Z,28.63
2018-09-04T07:03:39.506Z,30.47
2018-09-04T07:06:08.475Z,30.53
2018-09-04T07:08:37.946Z,30.10
2018-09-04T07:11:06.713Z,32.43
2018-09-04T07:13:35.363Z,45.17
2018-09-04T07:16:04.325Z,32.17
2018-09-04T07:18:33.048Z,33.17
2018-09-04T07:21:01.736Z,32.00
2018-09-04T07:23:30.578Z,33.70
2018-09-04T07:25:59.252Z,30.73
2018-09-04T07:28:27.798Z,31.50
2018-09-04T07:30:56.356Z,31.43
2018-09-04T07:33:24.886Z,29.23
2018-09-04T07:35:53.485Z,31.20
2018-09-04T07:38:22.040Z,28.77
2018-09-04T07:40:50.569Z,28.10
2018-09-04T07:43:19.067Z,27.07
2018-09-04T07:45:47.574Z,27.43
2018-09-04T07:48:16.146Z,25.97
2018-09-04T07:50:44.667Z,26.07
2018-09-04T07:53:13.364Z,24.73
2018-09-04T07:55:41.991Z,40.10
2018-09-04T07:58:10.717Z,24.73
2018-09-04T08:00:39.315Z,24.33
2018-09-04T08:03:07.967Z,24.67
2018-09-04T08:05:36.577Z,24.93
2018-09-04T08:08:05.162Z,24.17
2018-09-04T08:10:35.298Z,26.67
2018-09-04T08:13:06.290Z,25.13
2018-09-04T08:15:35.250Z,23.67
2018-09-04T08:18:04.168Z,24.83
2018-09-04T08:20:34.344Z,24.53
2018-09-04T08:23:03.728Z,25.97
2018-09-04T08:25:32.457Z,25.00
2018-09-04T08:28:01.171Z,25.67
2018-09-04T08:30:29.997Z,26.07
2018-09-04T08:32:59.024Z,24.77
2018-09-04T08:35:27.594Z,23.93
2018-09-04T08:37:59.248Z,23.93
2018-09-04T08:40:29.675Z,25.13
2018-09-04T08:42:58.394Z,25.50
2018-09-04T08:45:27.111Z,24.30
2018-09-04T08:47:56.677Z,22.57
2018-09-04T08:50:25.413Z,24.47
2018-09-04T08:52:54.510Z,23.43
2018-09-04T08:55:23.226Z,22.23
2018-09-04T08:57:51.931Z,23.10
2018-09-04T09:00:20.484Z,23.60
2018-09-04T09:02:49.657Z,24.40
2018-09-04T09:05:18.163Z,25.77
2018-09-04T09:07:46.682Z,22.17
2018-09-04T09:10:15.317Z,22.63
2018-09-04T09:12:43.899Z,27.40
2018-09-04T09:15:13.112Z,26.10
2018-09-04T09:17:41.674Z,25.20
2018-09-04T09:20:10.277Z,25.00
2018-09-04T09:22:39.862Z,24.00
2018-09-04T09:25:08.400Z,24.87
2018-09-04T09:27:37.496Z,23.70
2018-09-04T09:30:06.659Z,25.43
2018-09-04T09:32:36.693Z,24.07
2018-09-04T09:35:05.431Z,24.40
2018-09-04T09:37:35.455Z,23.17
2018-09-04T09:40:04.116Z,25.50
2018-09-04T09:42:32.912Z,27.60
2018-09-04T09:45:01.587Z,25.90
2018-09-04T09:47:30.549Z,25.70
2018-09-04T09:49:59.166Z,25.20
2018-09-04T09:52:27.733Z,24.13
2018-09-04T09:54:56.544Z,23.17
2018-09-04T09:57:26.435Z,24.07
2018-09-04T09:59:56.173Z,24.07
2018-09-04T10:02:31.582Z,26.57
2018-09-04T10:05:00.166Z,23.80
2018-09-04T10:07:28.848Z,25.60
2018-09-04T10:09:59.081Z,24.77
2018-09-04T10:12:30.118Z,31.80
2018-09-04T10:14:58.763Z,26.00
2018-09-04T10:17:37.550Z,24.83
2018-09-04T10:20:08.011Z,24.40
2018-09-04T10:22:38.860Z,25.47
2018-09-04T10:25:08.163Z,25.33
2018-09-04T10:27:37.402Z,25.97
2018-09-04T10:30:12.465Z,23.77
2018-09-04T10:32:45.518Z,25.83
2018-09-04T10:35:15.112Z,26.10
2018-09-04T10:37:43.796Z,25.25
2018-09-04T10:40:17.804Z,26.47
2018-09-04T10:42:46.440Z,26.80
2018-09-04T10:45:21.164Z,27.45
2018-09-04T10:47:49.750Z,28.43
2018-09-04T10:50:18.610Z,26.23
2018-09-04T10:52:47.453Z,26.40
2018-09-04T10:55:16.562Z,28.90
2018-09-04T10:57:45.448Z,27.27
2018-09-04T11:00:15.024Z,28.20
2018-09-04T11:02:43.673Z,25.03
2018-09-04T11:05:12.271Z,28.57
2018-09-04T11:07:41.022Z,27.80
2018-09-04T11:10:09.643Z,25.47
2018-09-04T11:12:38.352Z,27.43
2018-09-04T11:15:10.180Z,29.03
2018-09-04T11:17:51.436Z,42.93
2018-09-04T11:20:21.224Z,35.77
2018-09-04T11:22:50.778Z,29.40
2018-09-04T11:25:19.809Z,30.93
2018-09-04T11:27:50.292Z,30.80
2018-09-04T11:30:19.216Z,32.20
2018-09-04T11:32:48.814Z,33.73
2018-09-04T11:35:17.678Z,33.20
2018-09-04T11:37:46.317Z,30.48
2018-09-04T11:40:16.400Z,31.03
2018-09-04T11:42:48.144Z,33.40
2018-09-04T11:45:16.980Z,67.85
2018-09-04T11:47:45.755Z,32.17
2018-09-04T11:50:15.941Z,32.33
2018-09-04T11:52:44.727Z,31.50
2018-09-04T11:55:13.388Z,30.57
2018-09-04T11:57:42.481Z,29.60
2018-09-04T12:00:16.101Z,33.03
2018-09-04T12:02:45.482Z,29.87
2018-09-04T12:05:14.267Z,30.23
2018-09-04T12:07:51.043Z,32.07
2018-09-04T12:10:36.876Z,31.10
2018-09-04T12:13:12.094Z,30.93
2018-09-04T12:16:01.362Z,28.67
2018-09-04T12:18:31.629Z,30.67
2018-09-04T12:21:14.134Z,29.97
2018-09-04T12:23:43.196Z,29.70
2018-09-04T12:26:12.456Z,31.05
2018-09-04T12:28:42.059Z,28.73
2018-09-04T12:31:28.729Z,29.63
2018-09-04T12:34:01.541Z,34.43
2018-09-04T12:36:39.585Z,27.17
2018-09-04T12:39:18.805Z,28.47
2018-09-04T12:41:50.293Z,26.60
2018-09-04T12:44:19.463Z,26.30
2018-09-04T12:46:48.722Z,24.03
2018-09-04T12:49:20.190Z,23.77
2018-09-04T12:51:59.039Z,35.13
2018-09-04T12:54:28.310Z,30.82
2018-09-04T12:59:18.433Z,23.80
2018-09-04T13:01:47.308Z,25.27
2018-09-04T13:04:16.219Z,25.15
2018-09-04T13:11:11.149Z,24.63
2018-09-04T13:13:42.364Z,23.40
2018-09-04T13:16:12.784Z,23.98
2018-09-04T13:18:41.689Z,24.55
2018-09-04T13:21:10.587Z,22.02
2018-09-04T13:23:39.608Z,22.83
2018-09-04T13:26:08.474Z,22.17
2018-09-04T13:28:38.328Z,22.93
2018-09-04T13:31:12.955Z,21.83
2018-09-04T13:33:41.753Z,22.20
2018-09-04T13:36:10.640Z,22.37
2018-09-04T13:38:40.062Z,21.37
2018-09-04T13:41:15.663Z,23.20
2018-09-04T13:43:45.626Z,24.25
2018-09-04T13:46:14.294Z,23.55
2018-09-04T13:48:43.193Z,20.97
2018-09-04T13:51:12.125Z,18.90
2018-09-04T13:53:41.340Z,19.60
2018-09-04T13:56:11.655Z,17.90
2018-09-04T13:58:40.696Z,18.17
2018-09-04T14:01:11.893Z,17.57
2018-09-04T14:03:40.674Z,19.33
2018-09-04T14:06:11.314Z,18.17
2018-09-04T14:08:49.066Z,17.93
2018-09-04T14:11:19.941Z,20.27
2018-09-04T14:13:51.871Z,17.83
2018-09-04T14:16:23.224Z,21.80
2018-09-04T14:18:52.241Z,23.37
2018-09-04T14:21:21.125Z,32.60
2018-09-04T14:23:50.204Z,22.17
2018-09-04T15:06:18.170Z,21.48
2018-09-04T15:08:46.740Z,20.17
2018-09-04T15:11:17.382Z,20.23
2018-09-04T15:13:45.883Z,19.97
2018-09-04T15:16:15.098Z,20.13
2018-09-04T15:18:43.696Z,20.75
2018-09-04T15:21:12.384Z,21.30
2018-09-04T15:23:47.178Z,22.13
2018-09-04T15:26:16.158Z,19.93
2018-09-04T15:28:44.902Z,19.50
2018-09-04T15:31:14.643Z,20.67
2018-09-04T15:33:43.501Z,20.63
2018-09-04T15:36:12.083Z,19.17
2018-09-04T15:38:40.631Z,19.77
2018-09-04T15:41:09.221Z,20.00
2018-09-04T15:43:38.032Z,21.03
2018-09-04T15:46:06.868Z,19.23
2018-09-04T15:48:38.320Z,19.25
2018-09-04T15:51:07.135Z,19.27
2018-09-04T15:53:35.930Z,18.30
2018-09-04T15:56:04.516Z,19.10
2018-09-04T15:58:32.978Z,18.43
2018-09-04T16:01:01.571Z,19.07
2018-09-04T16:03:31.213Z,19.50
2018-09-04T16:05:59.886Z,18.13
2018-09-04T16:08:28.411Z,20.67
2018-09-04T16:10:56.918Z,19.20
2018-09-04T16:13:25.417Z,19.07
2018-09-04T16:15:54.019Z,19.47
2018-09-04T16:18:22.637Z,21.00
2018-09-04T16:20:51.091Z,19.87
2018-09-04T16:23:19.664Z,21.57
2018-09-04T16:25:48.210Z,27.10
2018-09-04T16:28:16.796Z,21.80
2018-09-04T16:30:45.258Z,20.27
2018-09-04T16:33:13.787Z,20.77
2018-09-04T16:35:42.445Z,23.07
2018-09-04T16:38:11.864Z,21.67
2018-09-04T16:40:40.788Z,22.40
2018-09-04T16:43:10.228Z,21.83
2018-09-04T16:45:38.781Z,23.53
2018-09-04T16:48:07.348Z,20.37
2018-09-04T16:50:35.880Z,22.13
2018-09-04T16:53:04.376Z,23.63
2018-09-04T16:55:32.910Z,22.07
2018-09-04T16:58:01.480Z,21.70
2018-09-04T17:00:29.944Z,20.57
2018-09-04T17:02:58.462Z,22.70
2018-09-04T17:05:40.129Z,24.00
2018-09-04T17:08:08.720Z,23.00
2018-09-04T17:10:38.298Z,22.67
2018-09-04T17:13:42.130Z,24.57
2018-09-04T17:16:14.828Z,24.30
2018-09-04T17:18:44.384Z,24.20
2018-09-04T17:21:12.888Z,22.13
2018-09-04T17:23:41.385Z,23.60
2018-09-04T17:26:09.858Z,24.80
2018-09-04T17:28:39.879Z,26.23
2018-09-04T17:31:08.767Z,24.70
2018-09-04T17:33:39.471Z,27.33
2018-09-04T17:36:08.915Z,22.37
2018-09-04T17:38:39.072Z,24.00
2018-09-04T17:41:08.581Z,25.40
2018-09-04T17:43:39.699Z,22.47
2018-09-04T17:46:08.250Z,22.80
2018-09-04T17:48:37.777Z,24.13
2018-09-04T17:51:07.851Z,24.37
2018-09-04T17:53:37.619Z,22.00
2018-09-04T17:56:09.287Z,21.67
2018-09-04T17:58:38.320Z,22.73
2018-09-04T18:01:07.702Z,20.73
2018-09-04T18:03:38.426Z,22.70
2018-09-04T18:06:07.009Z,21.47
2018-09-04T18:08:39.614Z,22.07
2018-09-04T18:11:08.113Z,21.23
2018-09-04T18:13:37.606Z,20.87
2018-09-04T18:18:40.806Z,21.40
2018-09-04T18:21:09.359Z,21.63
2018-09-04T18:23:37.858Z,21.30
2018-09-04T18:26:06.431Z,22.90
2018-09-04T18:28:34.921Z,20.40
2018-09-04T18:31:03.424Z,43.00
2018-09-04T18:33:32.049Z,25.00
2018-09-04T18:36:00.728Z,21.20
2018-09-04T18:38:29.309Z,24.17
2018-09-04T18:40:57.821Z,21.33
2018-09-04T18:43:28.770Z,21.33
2018-09-04T18:45:57.637Z,21.97
2018-09-04T18:48:26.582Z,20.50
2018-09-04T18:50:55.136Z,22.23
2018-09-04T18:53:23.617Z,20.37
2018-09-04T18:55:52.139Z,19.87
2018-09-04T18:58:20.675Z,22.00
2018-09-04T19:00:49.149Z,21.50
2018-09-04T19:03:17.758Z,19.93
2018-09-04T19:05:46.340Z,22.10
2018-09-04T19:08:15.720Z,22.10
2018-09-04T19:10:44.391Z,20.53
2018-09-04T19:13:13.221Z,22.40
2018-09-04T19:15:43.292Z,20.20
2018-09-04T19:18:12.000Z,20.07
2018-09-04T19:20:40.653Z,21.57
2018-09-04T19:23:10.245Z,21.77
2018-09-04T19:25:38.801Z,23.57
2018-09-04T19:28:07.355Z,23.60
2018-09-04T19:30:35.843Z,23.43
2018-09-04T19:33:05.587Z,24.87
2018-09-04T19:35:34.135Z,25.80
2018-09-04T19:38:03.662Z,26.43
2018-09-04T19:40:32.346Z,27.60
2018-09-04T19:43:00.905Z,26.07
2018-09-04T19:45:29.706Z,26.93
2018-09-04T19:47:58.177Z,27.90
2018-09-04T19:50:28.336Z,27.33
2018-09-04T19:53:03.394Z,29.17
2018-09-04T19:55:32.817Z,28.47
2018-09-04T19:58:01.552Z,30.03
2018-09-04T20:00:30.500Z,28.97
2018-09-04T20:03:01.413Z,29.73
2018-09-04T20:05:32.253Z,32.03
2018-09-04T20:08:02.467Z,31.63
2018-09-04T20:10:31.828Z,33.33
2018-09-04T20:13:01.477Z,33.20
2018-09-04T20:15:31.827Z,33.20
2018-09-04T20:18:01.803Z,33.37
2018-09-04T20:20:31.454Z,33.47
2018-09-04T20:23:00.748Z,37.42
2018-09-04T20:25:29.640Z,33.17
2018-09-04T20:27:59.299Z,39.07
2018-09-04T20:30:29.209Z,31.90
2018-09-04T20:32:57.974Z,35.48
2018-09-04T20:35:27.366Z,31.60
2018-09-04T20:37:56.788Z,27.33
2018-09-04T20:40:25.750Z,27.23
2018-09-04T20:42:54.618Z,27.57
2018-09-04T20:45:23.177Z,27.30
2018-09-04T20:47:51.841Z,27.07
2018-09-04T20:50:20.512Z,24.90
2018-09-04T20:52:49.377Z,25.60
2018-09-04T20:55:18.172Z,25.27
2018-09-04T20:57:58.558Z,26.07
2018-09-04T21:00:39.872Z,26.17
2018-09-04T21:03:19.731Z,26.20
2018-09-04T21:05:59.615Z,27.93
2018-09-04T21:08:41.158Z,27.30
2018-09-04T21:11:09.826Z,30.13
2018-09-04T21:13:39.086Z,32.03
2018-09-04T21:16:07.929Z,35.00
2018-09-04T21:18:36.991Z,33.67
2018-09-04T21:21:06.022Z,36.50
2018-09-04T21:23:34.699Z,37.10
2018-09-04T21:26:03.365Z,39.17
2018-09-04T21:28:32.752Z,37.33
2018-09-04T21:31:01.682Z,39.37
2018-09-04T21:33:30.435Z,39.53
2018-09-04T21:35:59.084Z,36.57
2018-09-04T21:38:27.724Z,39.73
2018-09-04T21:40:56.319Z,40.37
2018-09-04T21:43:24.853Z,39.63
2018-09-04T21:45:53.499Z,37.80
2018-09-04T21:48:22.063Z,40.60
2018-09-04T21:50:51.194Z,40.90
2018-09-04T21:53:19.866Z,41.50
2018-09-04T21:55:50.725Z,42.90
2018-09-04T21:58:19.345Z,42.33
2018-09-04T22:00:48.350Z,42.37
2018-09-04T22:03:18.008Z,42.83
2018-09-04T22:05:46.646Z,41.27
2018-09-04T22:08:15.321Z,41.63
2018-09-04T22:10:44.007Z,42.50
2018-09-04T22:13:12.627Z,45.77
2018-09-04T22:15:41.312Z,42.83
2018-09-04T22:18:09.913Z,42.23
2018-09-04T22:20:38.498Z,44.97
2018-09-04T22:23:07.053Z,41.43
2018-09-04T22:25:35.561Z,44.40
2018-09-04T22:28:05.996Z,42.27
2018-09-04T22:30:34.624Z,45.03
2018-09-04T22:33:03.213Z,41.30
2018-09-04T22:35:31.842Z,42.10
2018-09-04T22:38:01.340Z,43.60
2018-09-04T22:40:29.985Z,42.20
2018-09-04T22:43:03.313Z,41.27
2018-09-04T22:45:31.948Z,42.50
2018-09-04T22:48:00.507Z,42.60
2018-09-04T22:50:34.397Z,39.40
2018-09-04T22:53:02.921Z,40.17
2018-09-04T22:55:31.566Z,42.33
2018-09-04T22:58:00.213Z,40.37
2018-09-04T23:00:28.717Z,40.30
2018-09-04T23:02:57.249Z,38.33
2018-09-04T23:05:25.793Z,41.57
2018-09-04T23:07:54.358Z,41.07
2018-09-04T23:10:22.880Z,37.00
2018-09-04T23:12:51.534Z,36.43
2018-09-04T23:15:20.004Z,36.10
2018-09-04T23:17:48.637Z,38.43
2018-09-04T23:20:17.241Z,35.77
2018-09-04T23:22:45.745Z,34.70
2018-09-04T23:25:14.298Z,39.20
2018-09-04T23:27:42.912Z,36.43
2018-09-04T23:30:11.461Z,35.70
2018-09-04T23:32:40.765Z,36.33
2018-09-04T23:35:09.505Z,36.57
2018-09-04T23:37:38.073Z,35.20
2018-09-04T23:40:06.741Z,34.17
2018-09-04T23:42:36.123Z,33.47
2018-09-04T23:45:05.085Z,34.43
2018-09-04T23:47:34.841Z,34.93
2018-09-04T23:50:03.445Z,34.20
2018-09-04T23:52:32.044Z,33.37
2018-09-04T23:55:00.688Z,33.83
2018-09-04T23:57:29.408Z,35.00
2018-09-04T23:59:58.073Z,35.93
